createdAt,value
2019-01-02T00:02:04.798Z,78.00
2019-01-02T00:04:39.625Z,78.15
2019-01-02T00:07:17.281Z,77.68
2019-01-02T00:09:50.929Z,76.89
2019-01-02T00:12:25.132Z,76.35
2019-01-02T00:14:58.236Z,75.92
2019-01-02T00:17:31.552Z,76.08
2019-01-02T00:20:11.184Z,75.70
2019-01-02T00:22:44.584Z,75.33
2019-01-02T00:25:20.784Z,74.51
2019-01-02T00:27:56.516Z,74.31
2019-01-02T00:30:29.649Z,74.05
2019-01-02T00:33:03.436Z,74.27
2019-01-02T00:35:36.409Z,74.13
2019-01-02T00:38:10.104Z,74.18
2019-01-02T00:40:43.632Z,74.17
2019-01-02T00:43:16.576Z,73.52
2019-01-02T00:45:50.009Z,73.85
2019-01-02T00:48:23.364Z,73.55
2019-01-02T00:50:56.772Z,73.21
2019-01-02T00:53:31.616Z,72.91
2019-01-02T00:56:05.433Z,72.84
2019-01-02T00:58:38.364Z,72.38
2019-01-02T01:01:12.046Z,72.28
2019-01-02T01:03:45.225Z,72.11
2019-01-02T01:06:19.459Z,71.85
2019-01-02T01:08:52.649Z,72.10
2019-01-02T01:11:26.308Z,71.30
2019-01-02T01:14:01.886Z,71.25
2019-01-02T01:16:34.829Z,71.09
2019-01-02T01:19:09.552Z,71.06
2019-01-02T01:21:42.688Z,71.04
2019-01-02T01:24:16.047Z,70.40
2019-01-02T01:26:49.443Z,70.54
2019-01-02T01:29:23.506Z,71.09
2019-01-02T01:31:57.408Z,71.19
2019-01-02T01:34:31.562Z,71.09
2019-01-02T01:37:04.465Z,70.67
2019-01-02T01:39:38.365Z,70.23
2019-01-02T01:42:13.140Z,69.85
2019-01-02T01:44:46.340Z,69.86
2019-01-02T01:47:19.470Z,70.07
2019-01-02T01:49:52.898Z,70.12
2019-01-02T01:52:26.127Z,69.74
2019-01-02T01:54:59.378Z,69.85
2019-01-02T01:57:33.121Z,69.58
2019-01-02T02:00:14.101Z,69.62
2019-01-02T02:02:46.917Z,69.83
2019-01-02T02:05:20.886Z,69.79
2019-01-02T02:07:53.822Z,69.71
2019-01-02T02:10:27.824Z,69.57
2019-01-02T02:13:01.158Z,69.25
2019-01-02T02:15:34.016Z,69.56
2019-01-02T02:18:06.952Z,69.76
2019-01-02T02:20:40.288Z,69.74
2019-01-02T02:23:13.159Z,70.02
2019-01-02T02:25:46.988Z,70.39
2019-01-02T02:28:20.555Z,70.86
2019-01-02T02:30:53.715Z,70.62
2019-01-02T02:33:26.857Z,70.64
2019-01-02T02:36:00.552Z,70.83
2019-01-02T02:38:33.773Z,71.39
2019-01-02T02:41:06.898Z,71.84
2019-01-02T02:43:41.692Z,71.81
2019-01-02T02:46:14.564Z,72.08
2019-01-02T02:48:47.561Z,72.06
2019-01-02T02:51:22.654Z,72.07
2019-01-02T02:53:56.967Z,72.52
2019-01-02T02:56:32.223Z,72.89
2019-01-02T02:59:07.583Z,73.35
2019-01-02T03:01:40.871Z,73.82
2019-01-02T03:04:14.347Z,73.95
2019-01-02T03:06:47.608Z,74.19
2019-01-02T03:09:23.575Z,74.10
2019-01-02T03:11:56.496Z,74.20
2019-01-02T03:14:29.534Z,74.53
2019-01-02T03:17:03.261Z,74.55
2019-01-02T03:19:36.483Z,74.66
2019-01-02T03:22:09.656Z,75.20
2019-01-02T03:24:43.318Z,75.56
2019-01-02T03:27:16.462Z,76.08
2019-01-02T03:29:49.759Z,76.48
2019-01-02T03:32:23.531Z,76.55
2019-01-02T03:34:57.308Z,76.63
2019-01-02T03:37:30.464Z,76.45
2019-01-02T03:40:04.672Z,77.25
2019-01-02T03:42:37.623Z,78.93
2019-01-02T03:45:17.603Z,79.27
2019-01-02T03:47:50.812Z,80.38
2019-01-02T03:50:23.808Z,80.79
2019-01-02T03:52:57.184Z,80.98
2019-01-02T03:55:30.851Z,81.50
2019-01-02T03:58:03.808Z,81.40
2019-01-02T04:00:37.045Z,81.43
2019-01-02T04:03:09.936Z,81.06
2019-01-02T04:05:43.267Z,81.38
2019-01-02T04:08:16.749Z,81.18
2019-01-02T04:10:50.039Z,81.09
2019-01-02T04:13:23.320Z,80.86
2019-01-02T04:15:59.020Z,80.71
2019-01-02T04:18:31.956Z,80.89
2019-01-02T04:21:04.995Z,80.76
2019-01-02T04:23:38.368Z,80.48
2019-01-02T04:26:11.376Z,79.82
2019-01-02T04:28:44.559Z,79.84
2019-01-02T04:31:20.100Z,79.95
2019-01-02T04:33:55.514Z,79.72
2019-01-02T04:36:28.500Z,79.86
2019-01-02T04:39:01.695Z,79.54
2019-01-02T04:41:34.663Z,79.71
2019-01-02T04:44:07.445Z,79.91
2019-01-02T04:46:40.840Z,79.92
2019-01-02T04:49:13.652Z,80.03
2019-01-02T04:51:46.859Z,80.11
2019-01-02T04:54:23.172Z,80.29
2019-01-02T04:56:56.095Z,80.59
2019-01-02T04:59:29.072Z,81.00
2019-01-02T05:02:02.094Z,81.00
2019-01-02T05:04:35.442Z,80.61
2019-01-02T05:07:08.782Z,80.38
2019-01-02T05:09:41.625Z,80.64
2019-01-02T05:12:15.019Z,80.65
2019-01-02T05:14:47.811Z,80.45
2019-01-02T05:17:20.849Z,80.44
2019-01-02T05:19:54.213Z,80.56
2019-01-02T05:22:28.115Z,80.63
2019-01-02T05:25:01.009Z,80.94
2019-01-02T05:27:34.436Z,81.14
2019-01-02T05:30:14.338Z,81.26
2019-01-02T05:32:47.347Z,81.52
2019-01-02T05:35:20.323Z,81.59
2019-01-02T05:37:54.014Z,81.69
2019-01-02T05:40:28.524Z,81.41
2019-01-02T05:43:01.569Z,81.24
2019-01-02T05:45:34.915Z,81.21
2019-01-02T05:48:08.046Z,81.23
2019-01-02T05:50:40.917Z,81.06
2019-01-02T05:53:14.343Z,80.90
2019-01-02T05:55:47.311Z,80.73
2019-01-02T05:58:20.332Z,80.67
2019-01-02T06:00:53.648Z,80.67
2019-01-02T06:03:27.455Z,80.76
2019-01-02T06:06:01.858Z,81.11
2019-01-02T06:08:37.183Z,81.46
2019-01-02T06:11:10.167Z,81.78
2019-01-02T06:13:43.897Z,81.73
2019-01-02T06:16:19.062Z,81.67
2019-01-02T06:18:53.151Z,81.83
2019-01-02T06:21:26.035Z,81.55
2019-01-02T06:23:59.544Z,81.44
2019-01-02T06:26:33.895Z,81.34
2019-01-02T06:29:06.782Z,81.67
2019-01-02T06:31:39.711Z,81.63
2019-01-02T06:34:12.661Z,81.89
2019-01-02T06:36:45.527Z,82.25
2019-01-02T06:39:19.087Z,82.15
2019-01-02T06:41:52.048Z,82.34
2019-01-02T06:44:24.985Z,82.74
2019-01-02T06:46:58.360Z,82.69
2019-01-02T06:49:31.393Z,82.46
2019-01-02T06:52:05.451Z,82.13
2019-01-02T06:54:40.405Z,82.16
2019-01-02T06:57:14.652Z,82.18
2019-01-02T06:59:47.928Z,82.11
2019-01-02T07:02:22.059Z,82.03
2019-01-02T07:04:55.349Z,82.16
2019-01-02T07:07:31.286Z,82.56
2019-01-02T07:10:05.975Z,82.53
2019-01-02T07:12:39.711Z,82.75
2019-01-02T07:15:15.609Z,83.02
2019-01-02T07:17:48.535Z,83.21
2019-01-02T07:20:21.621Z,83.26
2019-01-02T07:22:55.332Z,83.26
2019-01-02T07:25:28.401Z,83.17
2019-01-02T07:28:03.447Z,83.32
2019-01-02T07:30:36.810Z,83.22
2019-01-02T07:33:10.823Z,83.08
2019-01-02T07:36:28.355Z,83.02
2019-01-02T07:39:35.984Z,82.95
2019-01-02T07:42:52.007Z,82.39
2019-01-02T07:46:12.098Z,82.49
2019-01-02T07:49:23.072Z,82.23
2019-01-02T07:52:46.546Z,82.16
2019-01-02T07:56:15.489Z,82.49
2019-01-02T08:00:05.604Z,82.91
2019-01-02T08:03:15.728Z,83.73
2019-01-02T08:07:06.917Z,84.11
2019-01-02T08:10:40.558Z,83.63
2019-01-02T08:13:44.265Z,83.82
2019-01-02T08:17:15.848Z,84.00
2019-01-02T08:20:25.363Z,84.11
2019-01-02T08:24:11.122Z,84.04
2019-01-02T08:27:26.481Z,83.65
2019-01-02T08:31:25.007Z,83.49
2019-01-02T08:34:54.377Z,83.39
2019-01-02T08:38:29.923Z,83.22
2019-01-02T08:42:11.773Z,82.50
2019-01-02T08:46:07.085Z,82.72
2019-01-02T08:50:09.580Z,82.89
2019-01-02T08:53:12.813Z,83.00
2019-01-02T08:56:32.300Z,82.91
2019-01-02T08:59:54.254Z,82.76
2019-01-02T09:03:09.576Z,82.81
2019-01-02T09:06:27.098Z,82.56
2019-01-02T09:10:14.428Z,81.85
2019-01-02T09:13:32.115Z,81.48
2019-01-02T09:16:44.779Z,80.62
2019-01-02T09:20:10.395Z,80.78
2019-01-02T09:23:33.113Z,80.59
2019-01-02T09:26:52.682Z,80.84
2019-01-02T09:30:25.097Z,80.55
2019-01-02T09:34:08.649Z,79.90
2019-01-02T09:37:42.846Z,79.89
2019-01-02T09:40:49.394Z,79.07
2019-01-02T09:44:06.940Z,79.40
2019-01-02T09:47:20.441Z,79.23
2019-01-02T09:50:53.909Z,79.02
2019-01-02T09:54:28.377Z,78.17
2019-01-02T09:58:01.857Z,78.03
2019-01-02T10:01:11.198Z,77.29
2019-01-02T10:04:28.185Z,76.02
2019-01-02T10:07:42.744Z,75.08
2019-01-02T10:11:00.452Z,73.95
2019-01-02T10:14:55.485Z,73.53
2019-01-02T10:18:14.329Z,73.03
2019-01-02T10:21:46.616Z,72.30
2019-01-02T10:25:09.678Z,71.99
2019-01-02T10:28:32.855Z,72.25
2019-01-02T10:31:45.998Z,72.44
2019-01-02T10:35:09.885Z,72.84
2019-01-02T10:38:41.615Z,73.31
2019-01-02T10:42:08.293Z,73.63
2019-01-02T10:45:30.812Z,74.16
2019-01-02T10:49:08.531Z,74.70
2019-01-02T10:52:40.929Z,75.27
2019-01-02T10:55:56.467Z,74.59
2019-01-02T10:59:06.852Z,72.87
2019-01-02T11:03:16.430Z,73.14
2019-01-02T11:06:43.661Z,73.73
2019-01-02T11:10:21.188Z,71.12
2019-01-02T11:13:39.822Z,71.18
2019-01-02T11:17:14.952Z,71.11
2019-01-02T11:20:53.178Z,71.39
2019-01-02T11:24:19.332Z,70.83
2019-01-02T11:28:07.297Z,69.72
2019-01-02T11:32:03.112Z,69.91
2019-01-02T11:35:58.517Z,68.33
2019-01-02T11:39:43.934Z,68.86
2019-01-02T11:42:49.403Z,68.23
2019-01-02T11:45:22.520Z,67.41
2019-01-02T11:47:56.491Z,67.13
2019-01-02T11:50:30.172Z,66.78
2019-01-02T11:53:03.013Z,66.82
2019-01-02T11:55:37.430Z,67.79
2019-01-02T11:58:10.960Z,67.66
2019-01-02T12:00:45.453Z,66.63
2019-01-02T12:03:19.308Z,66.31
2019-01-02T12:05:54.520Z,66.37
2019-01-02T12:08:29.583Z,66.07
2019-01-02T12:11:02.541Z,66.02
2019-01-02T12:13:36.220Z,66.42
2019-01-02T12:16:09.605Z,67.44
2019-01-02T12:18:42.640Z,67.15
2019-01-02T12:21:16.955Z,67.44
2019-01-02T12:23:52.272Z,67.79
2019-01-02T12:26:25.253Z,67.65
2019-01-02T12:29:06.902Z,66.15
2019-01-02T12:31:43.501Z,65.37
2019-01-02T12:34:18.528Z,64.56
2019-01-02T12:36:54.252Z,64.12
2019-01-02T12:39:27.923Z,64.79
2019-01-02T12:42:02.378Z,64.54
2019-01-02T12:44:36.418Z,64.42
2019-01-02T12:47:09.525Z,64.95
2019-01-02T12:49:44.144Z,64.63
2019-01-02T12:52:17.214Z,63.73
2019-01-02T12:54:50.941Z,63.67
2019-01-02T12:57:25.400Z,62.01
2019-01-02T13:00:00.390Z,61.67
2019-01-02T13:02:59.215Z,60.95
2019-01-02T13:05:59.182Z,61.19
2019-01-02T13:09:19.192Z,60.01
2019-01-02T13:12:36.581Z,58.01
2019-01-02T13:16:19.533Z,57.54
2019-01-02T13:19:54.471Z,57.93
2019-01-02T13:23:03.351Z,56.46
2019-01-02T13:26:13.834Z,56.96
2019-01-02T13:29:21.798Z,57.75
2019-01-02T13:32:25.565Z,57.03
2019-01-02T13:36:13.679Z,56.77
2019-01-02T13:39:16.189Z,57.57
2019-01-02T13:42:17.209Z,57.72
2019-01-02T13:45:18.836Z,57.48
2019-01-02T13:48:50.890Z,57.26
2019-01-02T13:51:37.358Z,55.23
2019-01-02T13:54:12.373Z,55.69
2019-01-02T13:56:46.724Z,56.44
2019-01-02T13:59:20.564Z,55.93
2019-01-02T14:01:59.388Z,56.83
2019-01-02T14:04:35.234Z,57.32
2019-01-02T14:07:08.813Z,57.94
2019-01-02T14:09:42.599Z,57.41
2019-01-02T14:12:16.591Z,57.77
2019-01-02T14:14:49.536Z,57.54
2019-01-02T14:17:24.513Z,58.93
2019-01-02T14:19:57.575Z,60.54
2019-01-02T14:22:32.366Z,62.09
2019-01-02T14:25:11.781Z,63.33
2019-01-02T14:27:48.005Z,64.24
2019-01-02T14:30:21.619Z,64.80
2019-01-02T14:32:55.773Z,65.10
2019-01-02T14:35:29.811Z,65.34
2019-01-02T14:38:04.626Z,64.62
2019-01-02T14:40:39.143Z,64.76
2019-01-02T14:43:12.262Z,64.78
2019-01-02T14:45:46.134Z,64.65
2019-01-02T14:48:20.383Z,64.04
2019-01-02T14:50:53.348Z,64.29
2019-01-02T14:53:30.908Z,64.65
2019-01-02T14:56:04.810Z,64.61
2019-01-02T14:58:42.809Z,64.48
2019-01-02T15:01:16.345Z,64.85
2019-01-02T15:03:50.849Z,64.95
2019-01-02T15:06:29.951Z,64.66
2019-01-02T15:09:09.404Z,64.71
2019-01-02T15:11:45.723Z,64.80
2019-01-02T15:14:24.035Z,64.95
2019-01-02T15:16:57.940Z,65.10
2019-01-02T15:19:36.674Z,64.94
2019-01-02T15:22:13.232Z,65.33
2019-01-02T15:24:52.883Z,64.92
2019-01-02T15:27:30.836Z,64.94
2019-01-02T15:30:08.564Z,64.89
2019-01-02T15:32:53.420Z,64.87
2019-01-02T15:35:28.417Z,64.79
2019-01-02T15:38:03.857Z,64.96
2019-01-02T15:40:37.276Z,65.20
2019-01-02T15:43:10.365Z,65.32
2019-01-02T15:45:45.547Z,65.38
2019-01-02T15:48:19.452Z,65.30
2019-01-02T15:50:52.870Z,65.34
2019-01-02T15:53:30.666Z,65.48
2019-01-02T15:56:04.749Z,65.69
2019-01-02T15:58:38.761Z,65.96
2019-01-02T16:01:13.063Z,66.28
2019-01-02T16:03:48.944Z,66.51
2019-01-02T16:06:23.579Z,66.62
2019-01-02T16:08:57.645Z,66.68
2019-01-02T16:11:30.601Z,66.26
2019-01-02T16:14:08.259Z,66.09
2019-01-02T16:16:42.409Z,65.97
2019-01-02T16:19:15.515Z,66.04
2019-01-02T16:21:49.398Z,66.09
2019-01-02T16:24:23.960Z,66.12
2019-01-02T16:26:57.170Z,66.28
2019-01-02T16:29:30.800Z,66.46
2019-01-02T16:32:06.718Z,66.51
2019-01-02T16:34:39.961Z,66.86
2019-01-02T16:37:14.194Z,67.13
2019-01-02T16:39:47.215Z,67.28
2019-01-02T16:42:21.345Z,67.42
2019-01-02T16:44:55.743Z,67.34
2019-01-02T16:47:30.242Z,67.30
2019-01-02T16:50:05.362Z,67.38
2019-01-02T16:52:40.572Z,67.49
2019-01-02T16:55:14.412Z,67.53
2019-01-02T16:57:47.322Z,67.53
2019-01-02T17:00:20.362Z,67.56
2019-01-02T17:02:53.247Z,67.69
2019-01-02T17:05:36.173Z,67.75
2019-01-02T17:08:09.754Z,68.10
2019-01-02T17:10:42.715Z,68.40
2019-01-02T17:13:16.359Z,68.88
2019-01-02T17:15:50.282Z,69.25
2019-01-02T17:18:30.335Z,69.84
2019-01-02T17:21:14.728Z,69.89
2019-01-02T17:23:51.610Z,70.12
2019-01-02T17:26:25.969Z,70.54
2019-01-02T17:29:01.887Z,70.99
2019-01-02T17:31:38.182Z,71.43
2019-01-02T17:34:12.396Z,71.60
2019-01-02T17:36:45.828Z,72.08
2019-01-02T17:39:20.439Z,72.37
2019-01-02T17:41:59.385Z,72.85
2019-01-02T17:44:33.101Z,73.32
2019-01-02T17:47:07.568Z,73.22
2019-01-02T17:49:43.474Z,73.32
2019-01-02T17:52:23.814Z,73.45
2019-01-02T17:54:57.463Z,73.63
2019-01-02T17:57:30.969Z,73.91
2019-01-02T18:00:07.222Z,74.17
2019-01-02T18:02:40.260Z,74.49
2019-01-02T18:05:16.779Z,74.72
2019-01-02T18:07:51.803Z,74.87
2019-01-02T18:10:24.877Z,75.10
2019-01-02T18:12:59.875Z,75.14
2019-01-02T18:15:32.925Z,75.23
2019-01-02T18:18:08.085Z,75.30
2019-01-02T18:20:41.764Z,75.37
2019-01-02T18:23:19.779Z,75.57
2019-01-02T18:25:54.064Z,76.05
2019-01-02T18:28:28.434Z,76.28
2019-01-02T18:31:04.242Z,76.23
2019-01-02T18:33:38.806Z,76.27
2019-01-02T18:36:14.768Z,76.28
2019-01-02T18:38:54.325Z,76.14
2019-01-02T18:41:28.049Z,76.42
2019-01-02T18:44:01.731Z,76.47
2019-01-02T18:46:34.921Z,76.71
2019-01-02T18:49:09.742Z,76.56
2019-01-02T18:51:43.336Z,76.44
2019-01-02T18:54:17.531Z,76.68
2019-01-02T18:56:54.540Z,77.18
2019-01-02T18:59:28.000Z,77.50
2019-01-02T19:02:02.410Z,77.75
2019-01-02T19:04:37.286Z,78.00
2019-01-02T19:07:11.024Z,78.12
2019-01-02T19:09:44.433Z,78.52
2019-01-02T19:12:17.520Z,78.96
2019-01-02T19:14:50.631Z,78.76
2019-01-02T19:17:25.763Z,78.41
2019-01-02T19:19:58.821Z,78.75
2019-01-02T19:22:32.656Z,78.72
2019-01-02T19:25:08.440Z,78.91
2019-01-02T19:27:42.692Z,79.47
2019-01-02T19:30:16.465Z,79.39
2019-01-02T19:32:50.836Z,79.50
2019-01-02T19:35:25.687Z,79.87
2019-01-02T19:38:12.957Z,80.27
2019-01-02T19:40:47.738Z,80.69
2019-01-02T19:43:24.246Z,81.20
2019-01-02T19:45:59.596Z,81.45
2019-01-02T19:48:35.542Z,81.21
2019-01-02T19:51:14.561Z,81.19
2019-01-02T19:53:50.419Z,81.42
2019-01-02T19:56:25.954Z,81.79
2019-01-02T19:58:59.355Z,82.36
2019-01-02T20:01:34.251Z,82.69
2019-01-02T20:04:07.728Z,82.40
2019-01-02T20:06:42.750Z,82.41
2019-01-02T20:09:16.388Z,82.23
2019-01-02T20:11:50.846Z,82.05
2019-01-02T20:14:29.503Z,82.01
2019-01-02T20:17:06.900Z,82.14
2019-01-02T20:19:42.820Z,82.23
2019-01-02T20:22:16.744Z,82.33
2019-01-02T20:24:52.006Z,82.39
2019-01-02T20:27:27.864Z,82.57
2019-01-02T20:30:05.290Z,82.85
2019-01-02T20:32:38.427Z,82.99
2019-01-02T20:35:13.753Z,83.16
2019-01-02T20:37:47.928Z,83.32
2019-01-02T20:40:21.919Z,83.44
2019-01-02T20:42:56.371Z,83.32
2019-01-02T20:45:30.779Z,83.23
2019-01-02T20:48:04.143Z,83.30
2019-01-02T20:50:37.985Z,83.24
2019-01-02T20:53:12.088Z,83.32
2019-01-02T20:55:46.570Z,83.34
2019-01-02T20:58:20.107Z,83.20
2019-01-02T21:00:54.821Z,83.49
2019-01-02T21:03:28.876Z,83.79
2019-01-02T21:06:04.850Z,84.14
2019-01-02T21:08:38.134Z,84.03
2019-01-02T21:11:12.015Z,84.49
2019-01-02T21:13:46.361Z,84.69
2019-01-02T21:16:19.435Z,84.54
2019-01-02T21:18:52.512Z,84.55
2019-01-02T21:21:32.715Z,84.88
2019-01-02T21:24:08.124Z,85.50
2019-01-02T21:26:47.236Z,85.95
2019-01-02T21:29:20.296Z,86.16
2019-01-02T21:31:54.545Z,86.05
2019-01-02T21:34:29.501Z,85.87
2019-01-02T21:37:03.458Z,85.32
2019-01-02T21:39:36.562Z,85.21
2019-01-02T21:42:09.988Z,85.69
2019-01-02T21:44:42.954Z,86.08
2019-01-02T21:47:28.561Z,86.16
2019-01-02T21:50:04.180Z,86.24
2019-01-02T21:52:38.686Z,86.51
2019-01-02T21:55:13.184Z,86.73
2019-01-02T21:58:07.596Z,86.67
2019-01-02T22:00:43.842Z,86.37
2019-01-02T22:03:23.901Z,86.11
2019-01-02T22:06:01.668Z,86.42
2019-01-02T22:08:39.375Z,86.94
2019-01-02T22:11:16.549Z,87.24
2019-01-02T22:13:52.868Z,87.05
2019-01-02T22:16:27.895Z,87.15
2019-01-02T22:19:01.794Z,87.60
2019-01-02T22:21:35.515Z,88.24
2019-01-02T22:24:09.263Z,88.69
2019-01-02T22:26:42.285Z,88.87
2019-01-02T22:29:17.081Z,89.11
2019-01-02T22:31:52.591Z,89.23
2019-01-02T22:34:26.491Z,89.15
2019-01-02T22:36:59.484Z,89.22
2019-01-02T22:39:34.845Z,89.18
2019-01-02T22:42:10.803Z,89.32
2019-01-02T22:44:48.417Z,89.50
2019-01-02T22:47:29.692Z,89.57
2019-01-02T22:50:03.387Z,89.81
2019-01-02T22:52:38.778Z,90.35
2019-01-02T22:55:12.328Z,90.66
2019-01-02T22:57:46.370Z,91.03
2019-01-02T23:00:35.822Z,91.08
2019-01-02T23:03:34.411Z,91.02
2019-01-02T23:06:41.189Z,90.76
2019-01-02T23:09:39.958Z,91.01
2019-01-02T23:12:19.658Z,91.45
2019-01-02T23:14:59.131Z,92.11
2019-01-02T23:17:53.964Z,92.67
2019-01-02T23:21:01.152Z,93.39
2019-01-02T23:24:08.339Z,93.87
2019-01-02T23:27:02.016Z,94.23
2019-01-02T23:29:52.424Z,94.33
2019-01-02T23:32:48.331Z,94.41
2019-01-02T23:35:43.844Z,94.70
2019-01-02T23:38:50.011Z,94.90
2019-01-02T23:41:44.711Z,95.09
2019-01-02T23:44:42.268Z,95.20
2019-01-02T23:47:32.765Z,95.28
2019-01-02T23:50:12.476Z,95.29
2019-01-02T23:52:57.580Z,95.39
2019-01-02T23:55:38.760Z,95.59
2019-01-02T23:58:28.829Z,95.74
